sensor_id;sensor_type;location;lat;lon;timestamp;P1;durP1;ratioP1;P2;durP2;ratioP2
36597;SDS011;22607;49.550;11.940;2023-03-04T00:02:24;29.88;;;11.77;;
36597;SDS011;22607;49.550;11.940;2023-03-04T00:04:50;27.98;;;12.82;;
36597;SDS011;22607;49.550;11.940;2023-03-04T00:07:17;28.45;;;11.93;;
36597;SDS011;22607;49.550;11.940;2023-03-04T00:09:44;28.65;;;11.88;;
36597;SDS011;22607;49.550;11.940;2023-03-04T00:12:11;25.38;;;11.18;;
36597;SDS011;22607;49.550;11.940;2023-03-04T00:14:38;26.52;;;11.10;;
36597;SDS011;22607;49.550;11.940;2023-03-04T00:17:05;26.73;;;12.13;;
36597;SDS011;22607;49.550;11.940;2023-03-04T00:19:32;28.42;;;12.20;;
36597;SDS011;22607;49.550;11.940;2023-03-04T00:22:02;25.40;;;10.95;;
36597;SDS011;22607;49.550;11.940;2023-03-04T00:24:30;25.20;;;10.57;;
36597;SDS011;22607;49.550;11.940;2023-03-04T00:26:57;26.60;;;11.65;;
36597;SDS011;22607;49.550;11.940;2023-03-04T00:29:23;24.85;;;11.07;;
36597;SDS011;22607;49.550;11.940;2023-03-04T00:31:50;26.23;;;10.55;;
36597;SDS011;22607;49.550;11.940;2023-03-04T00:34:16;24.58;;;11.32;;
36597;SDS011;22607;49.550;11.940;2023-03-04T00:36:43;25.50;;;10.60;;
36597;SDS011;22607;49.550;11.940;2023-03-04T00:39:11;26.13;;;10.70;;
36597;SDS011;22607;49.550;11.940;2023-03-04T00:41:38;25.27;;;10.40;;
36597;SDS011;22607;49.550;11.940;2023-03-04T00:44:05;24.02;;;10.95;;
36597;SDS011;22607;49.550;11.940;2023-03-04T00:46:32;25.70;;;10.90;;
36597;SDS011;22607;49.550;11.940;2023-03-04T00:48:58;26.73;;;11.18;;
36597;SDS011;22607;49.550;11.940;2023-03-04T00:51:25;26.83;;;11.75;;
36597;SDS011;22607;49.550;11.940;2023-03-04T00:53:52;24.50;;;10.27;;
36597;SDS011;22607;49.550;11.940;2023-03-04T00:56:19;26.88;;;10.98;;
36597;SDS011;22607;49.550;11.940;2023-03-04T00:58:45;25.08;;;11.05;;
36597;SDS011;22607;49.550;11.940;2023-03-04T01:01:12;29.92;;;11.63;;
36597;SDS011;22607;49.550;11.940;2023-03-04T01:03:40;25.90;;;11.18;;
36597;SDS011;22607;49.550;11.940;2023-03-04T01:06:07;27.67;;;11.23;;
36597;SDS011;22607;49.550;11.940;2023-03-04T01:08:34;27.58;;;11.52;;
36597;SDS011;22607;49.550;11.940;2023-03-04T01:11:01;26.27;;;11.13;;
36597;SDS011;22607;49.550;11.940;2023-03-04T01:13:28;27.80;;;10.32;;
36597;SDS011;22607;49.550;11.940;2023-03-04T01:15:54;29.35;;;11.70;;
36597;SDS011;22607;49.550;11.940;2023-03-04T01:18:22;26.73;;;10.68;;
36597;SDS011;22607;49.550;11.940;2023-03-04T01:20:49;22.90;;;9.68;;
36597;SDS011;22607;49.550;11.940;2023-03-04T01:23:16;24.05;;;9.95;;
36597;SDS011;22607;49.550;11.940;2023-03-04T01:25:42;26.33;;;11.85;;
36597;SDS011;22607;49.550;11.940;2023-03-04T01:28:09;27.27;;;12.02;;
36597;SDS011;22607;49.550;11.940;2023-03-04T01:30:36;26.50;;;10.82;;
36597;SDS011;22607;49.550;11.940;2023-03-04T01:33:03;28.30;;;11.27;;
36597;SDS011;22607;49.550;11.940;2023-03-04T01:35:29;26.10;;;10.13;;
36597;SDS011;22607;49.550;11.940;2023-03-04T01:37:56;24.65;;;10.70;;
36597;SDS011;22607;49.550;11.940;2023-03-04T01:42:52;25.38;;;11.43;;
36597;SDS011;22607;49.550;11.940;2023-03-04T01:45:19;25.58;;;10.00;;
36597;SDS011;22607;49.550;11.940;2023-03-04T01:47:46;30.50;;;12.48;;
36597;SDS011;22607;49.550;11.940;2023-03-04T01:50:23;25.55;;;10.98;;
36597;SDS011;22607;49.550;11.940;2023-03-04T01:52:59;24.08;;;11.60;;
36597;SDS011;22607;49.550;11.940;2023-03-04T01:55:26;25.25;;;10.38;;
36597;SDS011;22607;49.550;11.940;2023-03-04T01:57:54;25.45;;;10.75;;
36597;SDS011;22607;49.550;11.940;2023-03-04T02:02:53;25.23;;;10.60;;
36597;SDS011;22607;49.550;11.940;2023-03-04T02:05:22;23.50;;;9.85;;
36597;SDS011;22607;49.550;11.940;2023-03-04T02:07:50;28.35;;;12.32;;
36597;SDS011;22607;49.550;11.940;2023-03-04T02:10:17;26.33;;;11.70;;
36597;SDS011;22607;49.550;11.940;2023-03-04T02:12:44;24.30;;;9.98;;
36597;SDS011;22607;49.550;11.940;2023-03-04T02:15:11;24.75;;;10.25;;
36597;SDS011;22607;49.550;11.940;2023-03-04T02:17:38;23.65;;;10.48;;
36597;SDS011;22607;49.550;11.940;2023-03-04T02:22:46;24.50;;;10.68;;
36597;SDS011;22607;49.550;11.940;2023-03-04T02:25:23;22.17;;;9.05;;
36597;SDS011;22607;49.550;11.940;2023-03-04T02:27:56;29.48;;;12.00;;
36597;SDS011;22607;49.550;11.940;2023-03-04T02:30:23;23.75;;;10.65;;
36597;SDS011;22607;49.550;11.940;2023-03-04T02:32:53;26.77;;;10.95;;
36597;SDS011;22607;49.550;11.940;2023-03-04T02:35:19;27.13;;;10.93;;
36597;SDS011;22607;49.550;11.940;2023-03-04T02:37:46;26.77;;;11.70;;
36597;SDS011;22607;49.550;11.940;2023-03-04T02:40:14;26.92;;;10.82;;
36597;SDS011;22607;49.550;11.940;2023-03-04T02:42:46;25.77;;;10.82;;
36597;SDS011;22607;49.550;11.940;2023-03-04T02:48:17;23.02;;;10.73;;
36597;SDS011;22607;49.550;11.940;2023-03-04T02:50:49;27.27;;;11.27;;
36597;SDS011;22607;49.550;11.940;2023-03-04T02:53:18;26.95;;;10.43;;
36597;SDS011;22607;49.550;11.940;2023-03-04T02:55:46;28.48;;;11.70;;
36597;SDS011;22607;49.550;11.940;2023-03-04T02:58:17;25.20;;;10.83;;
36597;SDS011;22607;49.550;11.940;2023-03-04T03:00:43;26.83;;;10.30;;
36597;SDS011;22607;49.550;11.940;2023-03-04T03:03:10;29.30;;;12.10;;
36597;SDS011;22607;49.550;11.940;2023-03-04T03:05:39;27.10;;;11.83;;
36597;SDS011;22607;49.550;11.940;2023-03-04T03:08:06;25.20;;;10.00;;
36597;SDS011;22607;49.550;11.940;2023-03-04T03:10:35;29.63;;;11.35;;
36597;SDS011;22607;49.550;11.940;2023-03-04T03:13:01;26.58;;;10.40;;
36597;SDS011;22607;49.550;11.940;2023-03-04T03:15:28;24.83;;;10.40;;
36597;SDS011;22607;49.550;11.940;2023-03-04T03:17:55;25.97;;;10.83;;
36597;SDS011;22607;49.550;11.940;2023-03-04T03:20:22;28.43;;;11.80;;
36597;SDS011;22607;49.550;11.940;2023-03-04T03:22:48;25.43;;;10.60;;
36597;SDS011;22607;49.550;11.940;2023-03-04T03:25:15;25.63;;;10.00;;
36597;SDS011;22607;49.550;11.940;2023-03-04T03:27:42;23.13;;;10.00;;
36597;SDS011;22607;49.550;11.940;2023-03-04T03:30:10;26.63;;;11.27;;
36597;SDS011;22607;49.550;11.940;2023-03-04T03:32:37;23.97;;;10.73;;
36597;SDS011;22607;49.550;11.940;2023-03-04T03:35:04;25.23;;;10.90;;
36597;SDS011;22607;49.550;11.940;2023-03-04T03:37:31;26.93;;;10.60;;
36597;SDS011;22607;49.550;11.940;2023-03-04T03:39:57;27.20;;;11.93;;
36597;SDS011;22607;49.550;11.940;2023-03-04T03:42:24;26.93;;;10.67;;
36597;SDS011;22607;49.550;11.940;2023-03-04T03:44:51;22.63;;;9.47;;
36597;SDS011;22607;49.550;11.940;2023-03-04T03:47:17;24.67;;;10.07;;
36597;SDS011;22607;49.550;11.940;2023-03-04T03:49:44;24.40;;;10.53;;
36597;SDS011;22607;49.550;11.940;2023-03-04T03:52:11;24.50;;;9.50;;
36597;SDS011;22607;49.550;11.940;2023-03-04T03:54:39;28.10;;;10.60;;
36597;SDS011;22607;49.550;11.940;2023-03-04T03:57:05;25.07;;;10.77;;
36597;SDS011;22607;49.550;11.940;2023-03-04T03:59:32;25.57;;;9.63;;
36597;SDS011;22607;49.550;11.940;2023-03-04T04:01:58;23.17;;;9.27;;
36597;SDS011;22607;49.550;11.940;2023-03-04T04:04:25;24.87;;;10.07;;
36597;SDS011;22607;49.550;11.940;2023-03-04T04:06:52;21.73;;;9.10;;
36597;SDS011;22607;49.550;11.940;2023-03-04T04:09:18;21.37;;;8.87;;
36597;SDS011;22607;49.550;11.940;2023-03-04T04:11:45;21.10;;;9.37;;
36597;SDS011;22607;49.550;11.940;2023-03-04T04:14:12;23.60;;;10.30;;
36597;SDS011;22607;49.550;11.940;2023-03-04T04:16:39;24.43;;;9.63;;
36597;SDS011;22607;49.550;11.940;2023-03-04T04:19:06;26.77;;;10.97;;
36597;SDS011;22607;49.550;11.940;2023-03-04T04:21:32;24.13;;;9.30;;
36597;SDS011;22607;49.550;11.940;2023-03-04T04:23:59;24.33;;;9.53;;
36597;SDS011;22607;49.550;11.940;2023-03-04T04:26:25;21.03;;;8.77;;
36597;SDS011;22607;49.550;11.940;2023-03-04T04:28:52;23.53;;;9.40;;
36597;SDS011;22607;49.550;11.940;2023-03-04T04:31:18;26.17;;;11.00;;
36597;SDS011;22607;49.550;11.940;2023-03-04T04:33:45;25.63;;;10.33;;
36597;SDS011;22607;49.550;11.940;2023-03-04T04:36:12;21.93;;;10.17;;
36597;SDS011;22607;49.550;11.940;2023-03-04T04:38:40;27.67;;;10.60;;
36597;SDS011;22607;49.550;11.940;2023-03-04T04:41:21;27.73;;;11.53;;
36597;SDS011;22607;49.550;11.940;2023-03-04T04:43:52;24.70;;;10.73;;
36597;SDS011;22607;49.550;11.940;2023-03-04T04:46:20;22.47;;;9.60;;
36597;SDS011;22607;49.550;11.940;2023-03-04T04:48:47;30.33;;;13.37;;
36597;SDS011;22607;49.550;11.940;2023-03-04T04:51:14;24.93;;;10.53;;
36597;SDS011;22607;49.550;11.940;2023-03-04T04:53:41;24.90;;;10.63;;
36597;SDS011;22607;49.550;11.940;2023-03-04T04:56:10;24.90;;;10.90;;
36597;SDS011;22607;49.550;11.940;2023-03-04T04:58:38;27.77;;;13.00;;
36597;SDS011;22607;49.550;11.940;2023-03-04T05:01:05;31.90;;;13.30;;
36597;SDS011;22607;49.550;11.940;2023-03-04T05:03:32;31.50;;;12.23;;
36597;SDS011;22607;49.550;11.940;2023-03-04T05:06:00;31.47;;;13.13;;
36597;SDS011;22607;49.550;11.940;2023-03-04T05:08:26;27.40;;;13.00;;
36597;SDS011;22607;49.550;11.940;2023-03-04T05:10:53;29.70;;;13.20;;
36597;SDS011;22607;49.550;11.940;2023-03-04T05:13:20;24.07;;;10.73;;
36597;SDS011;22607;49.550;11.940;2023-03-04T05:15:47;28.27;;;12.27;;
36597;SDS011;22607;49.550;11.940;2023-03-04T05:18:15;24.20;;;10.63;;
36597;SDS011;22607;49.550;11.940;2023-03-04T05:20:43;24.97;;;10.57;;
36597;SDS011;22607;49.550;11.940;2023-03-04T05:23:10;23.00;;;9.97;;
36597;SDS011;22607;49.550;11.940;2023-03-04T05:25:36;27.43;;;12.90;;
36597;SDS011;22607;49.550;11.940;2023-03-04T05:28:02;28.23;;;12.47;;
36597;SDS011;22607;49.550;11.940;2023-03-04T05:30:30;28.50;;;12.20;;
36597;SDS011;22607;49.550;11.940;2023-03-04T05:32:56;30.67;;;12.53;;
36597;SDS011;22607;49.550;11.940;2023-03-04T05:35:22;28.10;;;12.37;;
36597;SDS011;22607;49.550;11.940;2023-03-04T05:37:49;30.60;;;12.77;;
36597;SDS011;22607;49.550;11.940;2023-03-04T05:40:16;22.77;;;10.77;;
36597;SDS011;22607;49.550;11.940;2023-03-04T05:42:43;24.80;;;11.70;;
36597;SDS011;22607;49.550;11.940;2023-03-04T05:45:10;21.90;;;10.00;;
36597;SDS011;22607;49.550;11.940;2023-03-04T05:47:37;23.40;;;11.17;;
36597;SDS011;22607;49.550;11.940;2023-03-04T05:50:03;28.73;;;11.60;;
36597;SDS011;22607;49.550;11.940;2023-03-04T05:52:30;25.03;;;11.53;;
36597;SDS011;22607;49.550;11.940;2023-03-04T05:54:56;26.93;;;12.07;;
36597;SDS011;22607;49.550;11.940;2023-03-04T05:57:23;27.70;;;11.73;;
36597;SDS011;22607;49.550;11.940;2023-03-04T05:59:49;28.87;;;12.40;;
36597;SDS011;22607;49.550;11.940;2023-03-04T06:02:16;24.90;;;10.30;;
36597;SDS011;22607;49.550;11.940;2023-03-04T06:04:42;22.20;;;9.90;;
36597;SDS011;22607;49.550;11.940;2023-03-04T06:07:09;23.80;;;10.73;;
36597;SDS011;22607;49.550;11.940;2023-03-04T06:09:35;23.53;;;11.07;;
36597;SDS011;22607;49.550;11.940;2023-03-04T06:12:02;29.77;;;12.77;;
36597;SDS011;22607;49.550;11.940;2023-03-04T06:14:29;24.53;;;10.83;;
36597;SDS011;22607;49.550;11.940;2023-03-04T06:16:55;27.20;;;10.73;;
36597;SDS011;22607;49.550;11.940;2023-03-04T06:19:22;28.17;;;11.57;;
36597;SDS011;22607;49.550;11.940;2023-03-04T06:21:48;25.13;;;11.17;;
36597;SDS011;22607;49.550;11.940;2023-03-04T06:24:15;23.13;;;10.07;;
36597;SDS011;22607;49.550;11.940;2023-03-04T06:26:42;25.40;;;11.00;;
36597;SDS011;22607;49.550;11.940;2023-03-04T06:29:08;24.63;;;10.57;;
36597;SDS011;22607;49.550;11.940;2023-03-04T06:31:35;22.83;;;9.97;;
36597;SDS011;22607;49.550;11.940;2023-03-04T06:34:02;23.77;;;10.80;;
36597;SDS011;22607;49.550;11.940;2023-03-04T06:39:03;21.73;;;9.20;;
36597;SDS011;22607;49.550;11.940;2023-03-04T06:41:30;25.93;;;11.50;;
36597;SDS011;22607;49.550;11.940;2023-03-04T06:44:00;22.30;;;9.63;;
36597;SDS011;22607;49.550;11.940;2023-03-04T06:46:27;22.97;;;9.67;;
36597;SDS011;22607;49.550;11.940;2023-03-04T06:48:55;26.37;;;11.63;;
36597;SDS011;22607;49.550;11.940;2023-03-04T06:51:22;24.23;;;9.83;;
36597;SDS011;22607;49.550;11.940;2023-03-04T06:53:48;26.43;;;10.50;;
36597;SDS011;22607;49.550;11.940;2023-03-04T06:56:15;22.33;;;9.90;;
36597;SDS011;22607;49.550;11.940;2023-03-04T06:58:42;24.87;;;10.80;;
36597;SDS011;22607;49.550;11.940;2023-03-04T07:01:10;25.50;;;11.10;;
36597;SDS011;22607;49.550;11.940;2023-03-04T07:03:37;22.63;;;10.30;;
36597;SDS011;22607;49.550;11.940;2023-03-04T07:06:04;22.80;;;10.43;;
36597;SDS011;22607;49.550;11.940;2023-03-04T07:08:31;22.75;;;10.65;;
36597;SDS011;22607;49.550;11.940;2023-03-04T07:10:57;28.23;;;12.05;;
36597;SDS011;22607;49.550;11.940;2023-03-04T07:13:25;24.80;;;10.00;;
36597;SDS011;22607;49.550;11.940;2023-03-04T07:15:51;24.75;;;10.10;;
36597;SDS011;22607;49.550;11.940;2023-03-04T07:18:18;23.23;;;10.87;;
36597;SDS011;22607;49.550;11.940;2023-03-04T07:20:45;26.85;;;12.35;;
36597;SDS011;22607;49.550;11.940;2023-03-04T07:23:11;26.15;;;10.63;;
36597;SDS011;22607;49.550;11.940;2023-03-04T07:25:43;20.30;;;9.32;;
36597;SDS011;22607;49.550;11.940;2023-03-04T07:28:10;22.08;;;8.77;;
36597;SDS011;22607;49.550;11.940;2023-03-04T07:30:36;30.40;;;11.98;;
36597;SDS011;22607;49.550;11.940;2023-03-04T07:33:03;24.13;;;10.10;;
36597;SDS011;22607;49.550;11.940;2023-03-04T07:35:29;25.80;;;10.00;;
36597;SDS011;22607;49.550;11.940;2023-03-04T07:37:56;26.38;;;11.13;;
36597;SDS011;22607;49.550;11.940;2023-03-04T07:40:22;26.52;;;11.93;;
36597;SDS011;22607;49.550;11.940;2023-03-04T07:42:49;24.92;;;10.15;;
36597;SDS011;22607;49.550;11.940;2023-03-04T07:45:17;24.92;;;10.85;;
36597;SDS011;22607;49.550;11.940;2023-03-04T07:47:44;24.67;;;11.30;;
36597;SDS011;22607;49.550;11.940;2023-03-04T07:50:12;23.02;;;11.18;;
36597;SDS011;22607;49.550;11.940;2023-03-04T07:52:45;24.30;;;10.88;;
36597;SDS011;22607;49.550;11.940;2023-03-04T07:55:13;23.23;;;10.98;;
36597;SDS011;22607;49.550;11.940;2023-03-04T07:57:41;27.08;;;11.00;;
36597;SDS011;22607;49.550;11.940;2023-03-04T08:00:10;26.20;;;11.18;;
36597;SDS011;22607;49.550;11.940;2023-03-04T08:02:38;24.05;;;11.27;;
36597;SDS011;22607;49.550;11.940;2023-03-04T08:05:07;24.25;;;11.43;;
36597;SDS011;22607;49.550;11.940;2023-03-04T08:07:34;23.83;;;10.68;;
36597;SDS011;22607;49.550;11.940;2023-03-04T08:10:02;29.08;;;12.52;;
36597;SDS011;22607;49.550;11.940;2023-03-04T08:12:29;23.77;;;11.55;;
36597;SDS011;22607;49.550;11.940;2023-03-04T08:14:56;29.23;;;13.13;;
36597;SDS011;22607;49.550;11.940;2023-03-04T08:17:26;31.45;;;12.30;;
36597;SDS011;22607;49.550;11.940;2023-03-04T08:19:54;30.45;;;12.50;;
36597;SDS011;22607;49.550;11.940;2023-03-04T08:22:26;24.30;;;10.70;;
36597;SDS011;22607;49.550;11.940;2023-03-04T08:24:53;25.67;;;11.40;;
36597;SDS011;22607;49.550;11.940;2023-03-04T08:27:19;27.40;;;11.05;;
36597;SDS011;22607;49.550;11.940;2023-03-04T08:29:46;28.73;;;12.93;;
36597;SDS011;22607;49.550;11.940;2023-03-04T08:32:12;25.00;;;10.73;;
36597;SDS011;22607;49.550;11.940;2023-03-04T08:34:44;23.63;;;10.70;;
36597;SDS011;22607;49.550;11.940;2023-03-04T08:37:11;27.17;;;11.45;;
36597;SDS011;22607;49.550;11.940;2023-03-04T08:39:37;26.23;;;12.73;;
36597;SDS011;22607;49.550;11.940;2023-03-04T08:42:05;28.00;;;11.90;;
36597;SDS011;22607;49.550;11.940;2023-03-04T08:44:32;26.73;;;10.90;;
36597;SDS011;22607;49.550;11.940;2023-03-04T08:46:58;29.95;;;12.48;;
36597;SDS011;22607;49.550;11.940;2023-03-04T08:49:26;28.83;;;13.55;;
36597;SDS011;22607;49.550;11.940;2023-03-04T08:51:54;27.83;;;12.10;;
36597;SDS011;22607;49.550;11.940;2023-03-04T08:54:22;31.10;;;12.80;;
36597;SDS011;22607;49.550;11.940;2023-03-04T08:56:48;25.10;;;11.82;;
36597;SDS011;22607;49.550;11.940;2023-03-04T08:59:15;25.92;;;12.02;;
36597;SDS011;22607;49.550;11.940;2023-03-04T09:01:41;30.35;;;12.85;;
36597;SDS011;22607;49.550;11.940;2023-03-04T09:04:08;27.83;;;11.95;;
36597;SDS011;22607;49.550;11.940;2023-03-04T09:06:34;26.17;;;11.43;;
36597;SDS011;22607;49.550;11.940;2023-03-04T09:09:01;26.83;;;11.95;;
36597;SDS011;22607;49.550;11.940;2023-03-04T09:11:29;24.95;;;11.48;;
36597;SDS011;22607;49.550;11.940;2023-03-04T09:13:56;28.10;;;12.13;;
36597;SDS011;22607;49.550;11.940;2023-03-04T09:16:23;27.75;;;12.43;;
36597;SDS011;22607;49.550;11.940;2023-03-04T09:18:49;26.45;;;12.15;;
36597;SDS011;22607;49.550;11.940;2023-03-04T09:21:17;27.88;;;13.02;;
36597;SDS011;22607;49.550;11.940;2023-03-04T09:23:52;26.55;;;11.57;;
36597;SDS011;22607;49.550;11.940;2023-03-04T09:26:22;25.92;;;12.50;;
36597;SDS011;22607;49.550;11.940;2023-03-04T09:28:54;24.25;;;10.98;;
36597;SDS011;22607;49.550;11.940;2023-03-04T09:31:22;29.40;;;12.15;;
36597;SDS011;22607;49.550;11.940;2023-03-04T09:33:50;25.65;;;12.00;;
36597;SDS011;22607;49.550;11.940;2023-03-04T09:36:18;27.13;;;11.93;;
36597;SDS011;22607;49.550;11.940;2023-03-04T09:38:46;26.42;;;11.60;;
36597;SDS011;22607;49.550;11.940;2023-03-04T09:41:29;25.50;;;11.88;;
36597;SDS011;22607;49.550;11.940;2023-03-04T09:44:20;26.65;;;12.23;;
36597;SDS011;22607;49.550;11.940;2023-03-04T09:46:54;25.63;;;10.68;;
36597;SDS011;22607;49.550;11.940;2023-03-04T09:49:24;24.48;;;11.32;;
36597;SDS011;22607;49.550;11.940;2023-03-04T09:51:53;24.85;;;11.30;;
36597;SDS011;22607;49.550;11.940;2023-03-04T10:05:06;21.15;;;10.10;;
36597;SDS011;22607;49.550;11.940;2023-03-04T10:12:59;21.27;;;9.55;;
36597;SDS011;22607;49.550;11.940;2023-03-04T10:33:08;20.42;;;9.50;;
36597;SDS011;22607;49.550;11.940;2023-03-04T10:35:37;21.35;;;9.85;;
36597;SDS011;22607;49.550;11.940;2023-03-04T10:38:04;21.88;;;9.85;;
36597;SDS011;22607;49.550;11.940;2023-03-04T10:40:36;21.73;;;10.30;;
36597;SDS011;22607;49.550;11.940;2023-03-04T10:43:16;20.45;;;9.23;;
36597;SDS011;22607;49.550;11.940;2023-03-04T10:45:56;21.60;;;10.50;;
36597;SDS011;22607;49.550;11.940;2023-03-04T10:48:26;24.70;;;11.02;;
36597;SDS011;22607;49.550;11.940;2023-03-04T10:50:55;20.60;;;10.30;;
36597;SDS011;22607;49.550;11.940;2023-03-04T10:53:39;21.80;;;9.48;;
36597;SDS011;22607;49.550;11.940;2023-03-04T11:02:12;24.30;;;10.73;;
36597;SDS011;22607;49.550;11.940;2023-03-04T11:04:53;21.30;;;10.63;;
36597;SDS011;22607;49.550;11.940;2023-03-04T11:07:35;22.55;;;10.68;;
36597;SDS011;22607;49.550;11.940;2023-03-04T11:10:38;20.25;;;9.65;;
36597;SDS011;22607;49.550;11.940;2023-03-04T11:18:40;24.88;;;11.25;;
36597;SDS011;22607;49.550;11.940;2023-03-04T11:24:22;21.25;;;9.63;;
36597;SDS011;22607;49.550;11.940;2023-03-04T11:27:09;24.10;;;11.02;;
36597;SDS011;22607;49.550;11.940;2023-03-04T11:29:50;22.05;;;10.73;;
36597;SDS011;22607;49.550;11.940;2023-03-04T11:37:49;22.70;;;11.07;;
36597;SDS011;22607;49.550;11.940;2023-03-04T11:40:29;21.08;;;9.95;;
36597;SDS011;22607;49.550;11.940;2023-03-04T11:43:16;22.80;;;10.73;;
36597;SDS011;22607;49.550;11.940;2023-03-04T11:56:43;21.65;;;10.50;;
36597;SDS011;22607;49.550;11.940;2023-03-04T12:07:50;23.60;;;11.50;;
36597;SDS011;22607;49.550;11.940;2023-03-04T12:10:41;24.63;;;11.85;;
36597;SDS011;22607;49.550;11.940;2023-03-04T12:22:00;21.25;;;10.13;;
36597;SDS011;22607;49.550;11.940;2023-03-04T12:33:25;22.73;;;9.95;;
36597;SDS011;22607;49.550;11.940;2023-03-04T12:36:12;22.80;;;9.63;;
36597;SDS011;22607;49.550;11.940;2023-03-04T12:38:59;22.15;;;10.13;;
36597;SDS011;22607;49.550;11.940;2023-03-04T12:44:15;20.42;;;8.57;;
36597;SDS011;22607;49.550;11.940;2023-03-04T12:46:50;21.02;;;8.80;;
36597;SDS011;22607;49.550;11.940;2023-03-04T12:55:13;18.95;;;8.43;;
36597;SDS011;22607;49.550;11.940;2023-03-04T12:57:43;22.60;;;9.18;;
36597;SDS011;22607;49.550;11.940;2023-03-04T13:08:58;20.27;;;8.00;;
36597;SDS011;22607;49.550;11.940;2023-03-04T13:11:31;20.45;;;8.98;;
36597;SDS011;22607;49.550;11.940;2023-03-04T13:14:07;20.90;;;9.18;;
36597;SDS011;22607;49.550;11.940;2023-03-04T13:16:50;17.70;;;7.35;;
36597;SDS011;22607;49.550;11.940;2023-03-04T13:24:52;22.20;;;7.55;;
36597;SDS011;22607;49.550;11.940;2023-03-04T13:43:43;18.77;;;7.30;;
36597;SDS011;22607;49.550;11.940;2023-03-04T13:56:37;19.65;;;7.95;;
36597;SDS011;22607;49.550;11.940;2023-03-04T14:04:41;21.90;;;7.75;;
36597;SDS011;22607;49.550;11.940;2023-03-04T14:07:29;17.95;;;8.18;;
36597;SDS011;22607;49.550;11.940;2023-03-04T14:12:24;17.52;;;7.95;;
36597;SDS011;22607;49.550;11.940;2023-03-04T14:14:53;22.95;;;8.65;;
36597;SDS011;22607;49.550;11.940;2023-03-04T14:17:27;18.25;;;8.05;;
36597;SDS011;22607;49.550;11.940;2023-03-04T14:19:56;19.90;;;8.93;;
36597;SDS011;22607;49.550;11.940;2023-03-04T14:22:33;18.70;;;8.18;;
36597;SDS011;22607;49.550;11.940;2023-03-04T14:25:19;17.27;;;7.72;;
36597;SDS011;22607;49.550;11.940;2023-03-04T14:27:48;23.77;;;8.20;;
36597;SDS011;22607;49.550;11.940;2023-03-04T14:30:25;19.02;;;7.47;;
36597;SDS011;22607;49.550;11.940;2023-03-04T14:33:08;19.77;;;7.95;;
36597;SDS011;22607;49.550;11.940;2023-03-04T14:35:44;19.77;;;8.00;;
36597;SDS011;22607;49.550;11.940;2023-03-04T14:43:38;20.55;;;10.15;;
36597;SDS011;22607;49.550;11.940;2023-03-04T14:46:11;19.48;;;8.45;;
36597;SDS011;22607;49.550;11.940;2023-03-04T14:48:40;19.02;;;7.50;;
36597;SDS011;22607;49.550;11.940;2023-03-04T14:54:22;23.40;;;8.35;;
36597;SDS011;22607;49.550;11.940;2023-03-04T14:56:51;21.52;;;9.18;;
36597;SDS011;22607;49.550;11.940;2023-03-04T14:59:26;23.80;;;9.60;;
36597;SDS011;22607;49.550;11.940;2023-03-04T15:02:06;18.33;;;8.57;;
36597;SDS011;22607;49.550;11.940;2023-03-04T15:04:40;20.05;;;8.75;;
36597;SDS011;22607;49.550;11.940;2023-03-04T15:07:11;26.15;;;10.82;;
36597;SDS011;22607;49.550;11.940;2023-03-04T15:09:41;22.15;;;9.05;;
36597;SDS011;22607;49.550;11.940;2023-03-04T15:12:20;21.35;;;10.23;;
36597;SDS011;22607;49.550;11.940;2023-03-04T15:14:53;21.23;;;9.38;;
36597;SDS011;22607;49.550;11.940;2023-03-04T15:19:58;17.27;;;9.93;;
36597;SDS011;22607;49.550;11.940;2023-03-04T15:22:26;21.48;;;10.00;;
36597;SDS011;22607;49.550;11.940;2023-03-04T15:24:53;20.30;;;9.35;;
36597;SDS011;22607;49.550;11.940;2023-03-04T15:27:20;26.92;;;11.88;;
36597;SDS011;22607;49.550;11.940;2023-03-04T15:29:50;27.05;;;11.45;;
36597;SDS011;22607;49.550;11.940;2023-03-04T15:32:25;22.50;;;10.13;;
36597;SDS011;22607;49.550;11.940;2023-03-04T15:34:52;23.23;;;9.48;;
36597;SDS011;22607;49.550;11.940;2023-03-04T15:37:20;21.10;;;9.07;;
36597;SDS011;22607;49.550;11.940;2023-03-04T15:39:52;21.23;;;9.63;;
36597;SDS011;22607;49.550;11.940;2023-03-04T15:42:22;18.60;;;9.10;;
36597;SDS011;22607;49.550;11.940;2023-03-04T15:44:49;21.75;;;9.98;;
36597;SDS011;22607;49.550;11.940;2023-03-04T15:47:15;22.80;;;9.35;;
36597;SDS011;22607;49.550;11.940;2023-03-04T15:49:43;23.30;;;10.45;;
36597;SDS011;22607;49.550;11.940;2023-03-04T15:52:14;20.13;;;10.00;;
36597;SDS011;22607;49.550;11.940;2023-03-04T15:54:42;21.73;;;9.77;;
36597;SDS011;22607;49.550;11.940;2023-03-04T15:57:15;20.27;;;9.10;;
36597;SDS011;22607;49.550;11.940;2023-03-04T15:59:46;22.65;;;10.38;;
36597;SDS011;22607;49.550;11.940;2023-03-04T16:02:21;22.10;;;9.98;;
36597;SDS011;22607;49.550;11.940;2023-03-04T16:04:49;20.02;;;9.48;;
36597;SDS011;22607;49.550;11.940;2023-03-04T16:07:20;18.27;;;8.75;;
36597;SDS011;22607;49.550;11.940;2023-03-04T16:09:51;23.33;;;11.00;;
36597;SDS011;22607;49.550;11.940;2023-03-04T16:12:25;21.00;;;10.27;;
36597;SDS011;22607;49.550;11.940;2023-03-04T16:14:52;20.95;;;9.85;;
36597;SDS011;22607;49.550;11.940;2023-03-04T16:17:19;23.40;;;10.85;;
36597;SDS011;22607;49.550;11.940;2023-03-04T16:19:46;22.05;;;10.00;;
36597;SDS011;22607;49.550;11.940;2023-03-04T16:22:21;22.52;;;11.27;;
36597;SDS011;22607;49.550;11.940;2023-03-04T16:24:49;20.98;;;10.55;;
36597;SDS011;22607;49.550;11.940;2023-03-04T16:27:20;26.27;;;11.68;;
36597;SDS011;22607;49.550;11.940;2023-03-04T16:29:47;22.60;;;10.88;;
36597;SDS011;22607;49.550;11.940;2023-03-04T16:32:13;22.95;;;10.40;;
36597;SDS011;22607;49.550;11.940;2023-03-04T16:34:40;19.67;;;8.93;;
36597;SDS011;22607;49.550;11.940;2023-03-04T16:37:11;22.63;;;9.68;;
36597;SDS011;22607;49.550;11.940;2023-03-04T16:39:40;19.95;;;8.98;;
36597;SDS011;22607;49.550;11.940;2023-03-04T16:42:12;20.83;;;9.68;;
36597;SDS011;22607;49.550;11.940;2023-03-04T16:44:48;19.55;;;9.30;;
36597;SDS011;22607;49.550;11.940;2023-03-04T16:47:15;17.75;;;8.88;;
36597;SDS011;22607;49.550;11.940;2023-03-04T16:49:42;18.48;;;8.85;;
36597;SDS011;22607;49.550;11.940;2023-03-04T16:52:13;21.15;;;10.32;;
36597;SDS011;22607;49.550;11.940;2023-03-04T16:54:52;18.30;;;9.98;;
36597;SDS011;22607;49.550;11.940;2023-03-04T16:57:18;24.17;;;11.38;;
36597;SDS011;22607;49.550;11.940;2023-03-04T16:59:45;20.00;;;9.75;;
36597;SDS011;22607;49.550;11.940;2023-03-04T17:02:16;18.67;;;8.60;;
36597;SDS011;22607;49.550;11.940;2023-03-04T17:04:45;22.55;;;9.75;;
36597;SDS011;22607;49.550;11.940;2023-03-04T17:07:13;21.60;;;9.45;;
36597;SDS011;22607;49.550;11.940;2023-03-04T17:09:40;20.42;;;10.25;;
36597;SDS011;22607;49.550;11.940;2023-03-04T17:12:09;23.80;;;10.95;;
36597;SDS011;22607;49.550;11.940;2023-03-04T17:14:37;25.42;;;12.55;;
36597;SDS011;22607;49.550;11.940;2023-03-04T17:17:04;30.85;;;14.18;;
36597;SDS011;22607;49.550;11.940;2023-03-04T17:19:32;23.67;;;12.90;;